createdAt,value
2023-04-07T00:00:47.784Z,544.00
2023-04-07T00:01:47.863Z,546.00
2023-04-07T00:02:47.898Z,542.00
2023-04-07T00:03:48.080Z,550.00
2023-04-07T00:04:48.069Z,543.00
2023-04-07T00:05:47.966Z,542.00
2023-04-07T00:06:48.026Z,542.00
2023-04-07T00:07:55.813Z,540.00
2023-04-07T00:08:49.024Z,540.00
2023-04-07T00:09:48.027Z,541.00
2023-04-07T00:10:47.988Z,541.00
2023-04-07T00:11:47.971Z,541.00
2023-04-07T00:12:47.952Z,544.00
2023-04-07T00:13:47.944Z,545.00
2023-04-07T00:14:47.918Z,543.00
2023-04-07T00:15:48.029Z,541.00
2023-04-07T00:16:47.906Z,545.00
2023-04-07T00:17:47.917Z,541.00
2023-04-07T00:18:47.869Z,542.00
2023-04-07T00:19:47.854Z,537.00
2023-04-07T00:20:47.865Z,536.00
2023-04-07T00:21:47.903Z,535.00
2023-04-07T00:22:47.940Z,542.00
2023-04-07T00:23:47.973Z,539.00
2023-04-07T00:24:48.096Z,535.00
2023-04-07T00:25:48.057Z,537.00
2023-04-07T00:26:48.150Z,540.00
2023-04-07T00:27:48.128Z,545.00
2023-04-07T00:28:48.153Z,538.00
2023-04-07T00:29:48.192Z,539.00
2023-04-07T00:30:48.283Z,537.00
2023-04-07T00:31:48.274Z,537.00
2023-04-07T00:32:48.314Z,542.00
2023-04-07T00:33:48.344Z,535.00
2023-04-07T00:34:48.389Z,535.00
2023-04-07T00:35:48.499Z,533.00
2023-04-07T00:36:48.469Z,540.00
2023-04-07T00:37:48.505Z,538.00
2023-04-07T00:38:48.571Z,536.00
2023-04-07T00:39:48.599Z,537.00
2023-04-07T00:40:48.636Z,536.00
2023-04-07T00:41:48.684Z,534.00
2023-04-07T00:42:48.736Z,541.00
2023-04-07T00:43:48.762Z,533.00
2023-04-07T00:44:48.813Z,535.00
2023-04-07T00:45:48.858Z,529.00
2023-04-07T00:46:49.013Z,535.00
2023-04-07T00:47:48.967Z,531.00
2023-04-07T00:48:48.985Z,536.00
2023-04-07T00:49:49.034Z,538.00
2023-04-07T00:50:49.102Z,531.00
2023-04-07T00:51:49.203Z,528.00
2023-04-07T00:52:49.187Z,533.00
2023-04-07T00:53:49.217Z,534.00
2023-04-07T00:54:49.252Z,538.00
2023-04-07T00:55:49.319Z,534.00
2023-04-07T00:56:49.340Z,528.00
2023-04-07T00:57:49.386Z,531.00
2023-04-07T00:58:49.430Z,532.00
2023-04-07T00:59:49.559Z,529.00
2023-04-07T01:00:49.540Z,532.00
2023-04-07T01:01:49.662Z,536.00
2023-04-07T01:02:49.809Z,531.00
2023-04-07T01:03:49.876Z,532.00
2023-04-07T01:04:49.824Z,526.00
2023-04-07T01:05:49.745Z,534.00
2023-04-07T01:06:49.788Z,530.00
2023-04-07T01:07:50.582Z,534.00
2023-04-07T01:08:49.969Z,535.00
2023-04-07T01:09:49.912Z,524.00
2023-04-07T01:10:49.981Z,532.00
2023-04-07T01:11:49.994Z,529.00
2023-04-07T01:12:50.062Z,538.00
2023-04-07T01:13:50.089Z,531.00
2023-04-07T01:14:50.135Z,535.00
2023-04-07T01:15:50.227Z,524.00
2023-04-07T01:16:50.588Z,528.00
2023-04-07T01:17:50.320Z,525.00
2023-04-07T01:18:50.304Z,529.00
2023-04-07T01:19:50.410Z,526.00
2023-04-07T01:20:50.462Z,532.00
2023-04-07T01:21:50.438Z,532.00
2023-04-07T01:22:50.523Z,527.00
2023-04-07T01:23:50.512Z,530.00
2023-04-07T01:24:51.090Z,528.00
2023-04-07T01:25:50.592Z,528.00
2023-04-07T01:26:50.629Z,529.00
2023-04-07T01:27:50.663Z,525.00
2023-04-07T01:28:50.696Z,529.00
2023-04-07T01:29:50.747Z,527.00
2023-04-07T01:30:50.793Z,528.00
2023-04-07T01:31:50.864Z,529.00
2023-04-07T01:32:50.982Z,528.00
2023-04-07T01:33:50.896Z,528.00
2023-04-07T01:34:50.935Z,528.00
2023-04-07T01:35:51.002Z,531.00
2023-04-07T01:36:51.050Z,525.00
2023-04-07T01:37:51.045Z,529.00
2023-04-07T01:38:51.077Z,528.00
2023-04-07T01:39:51.203Z,525.00
2023-04-07T01:40:51.154Z,528.00
2023-04-07T01:41:51.185Z,527.00
2023-04-07T01:42:51.288Z,533.00
2023-04-07T01:43:51.336Z,523.00
2023-04-07T01:44:51.302Z,525.00
2023-04-07T01:45:51.334Z,524.00
2023-04-07T01:46:51.461Z,527.00
2023-04-07T01:47:51.406Z,522.00
2023-04-07T01:48:51.413Z,531.00
2023-04-07T01:49:51.451Z,526.00
2023-04-07T01:50:51.482Z,526.00
2023-04-07T01:51:51.502Z,529.00
2023-04-07T01:52:51.534Z,534.00
2023-04-07T01:53:51.578Z,525.00
2023-04-07T01:54:51.579Z,528.00
2023-04-07T01:55:51.714Z,530.00
2023-04-07T01:56:51.636Z,527.00
2023-04-07T01:57:51.672Z,527.00
2023-04-07T01:58:51.692Z,527.00
2023-04-07T01:59:51.716Z,523.00
2023-04-07T02:00:51.769Z,532.00
2023-04-07T02:01:51.882Z,523.00
2023-04-07T02:02:52.022Z,526.00
2023-04-07T02:03:52.896Z,523.00
2023-04-07T02:04:51.937Z,524.00
2023-04-07T02:05:51.907Z,527.00
2023-04-07T02:06:51.933Z,527.00
2023-04-07T02:07:51.944Z,526.00
2023-04-07T02:08:51.970Z,527.00
2023-04-07T02:09:51.991Z,523.00
2023-04-07T02:10:52.019Z,522.00
2023-04-07T02:11:52.043Z,525.00
2023-04-07T02:12:52.070Z,522.00
2023-04-07T02:13:52.275Z,531.00
2023-04-07T02:14:52.099Z,529.00
2023-04-07T02:15:52.131Z,529.00
2023-04-07T02:16:52.206Z,528.00
2023-04-07T02:17:52.237Z,528.00
2023-04-07T02:18:52.209Z,523.00
2023-04-07T02:19:52.236Z,527.00
2023-04-07T02:20:52.277Z,525.00
2023-04-07T02:21:52.283Z,524.00
2023-04-07T02:22:52.317Z,530.00
2023-04-07T02:23:52.320Z,525.00
2023-04-07T02:24:52.360Z,525.00
2023-04-07T02:25:52.379Z,528.00
2023-04-07T02:26:52.407Z,528.00
2023-04-07T02:27:52.419Z,525.00
2023-04-07T02:28:52.481Z,531.00
2023-04-07T02:29:52.473Z,525.00
2023-04-07T02:30:52.515Z,528.00
2023-04-07T02:31:52.558Z,529.00
2023-04-07T02:32:52.591Z,527.00
2023-04-07T02:33:52.618Z,526.00
2023-04-07T02:34:52.609Z,528.00
2023-04-07T02:35:52.646Z,530.00
2023-04-07T02:36:52.745Z,526.00
2023-04-07T02:37:52.696Z,523.00
2023-04-07T02:38:52.726Z,528.00
2023-04-07T02:39:52.736Z,527.00
2023-04-07T02:40:52.762Z,525.00
2023-04-07T02:41:52.792Z,528.00
2023-04-07T02:42:52.817Z,526.00
2023-04-07T02:43:53.126Z,527.00
2023-04-07T02:44:52.878Z,528.00
2023-04-07T02:45:52.964Z,528.00
2023-04-07T02:46:52.952Z,525.00
2023-04-07T02:47:53.636Z,527.00
2023-04-07T02:48:52.979Z,525.00
2023-04-07T02:49:53.053Z,525.00
2023-04-07T02:50:53.044Z,529.00
2023-04-07T02:51:53.616Z,530.00
2023-04-07T02:52:53.098Z,527.00
2023-04-07T02:53:53.294Z,529.00
2023-04-07T02:54:53.148Z,524.00
2023-04-07T02:55:53.185Z,528.00
2023-04-07T02:56:53.215Z,529.00
2023-04-07T02:57:53.229Z,526.00
2023-04-07T02:58:54.117Z,526.00
2023-04-07T02:59:53.268Z,526.00
2023-04-07T03:00:53.320Z,522.00
2023-04-07T03:01:53.375Z,528.00
2023-04-07T03:02:53.429Z,528.00
2023-04-07T03:03:53.812Z,526.00
2023-04-07T03:04:53.426Z,525.00
2023-04-07T03:05:53.409Z,529.00
2023-04-07T03:06:53.427Z,526.00
2023-04-07T03:07:53.447Z,522.00
2023-04-07T03:08:53.468Z,525.00
2023-04-07T03:09:53.495Z,517.00
2023-04-07T03:10:53.599Z,525.00
2023-04-07T03:11:53.616Z,523.00
2023-04-07T03:12:53.579Z,521.00
2023-04-07T03:13:53.866Z,526.00
2023-04-07T03:14:53.605Z,527.00
2023-04-07T03:15:53.633Z,523.00
2023-04-07T03:16:53.702Z,522.00
2023-04-07T03:17:53.691Z,523.00
2023-04-07T03:18:53.693Z,524.00
2023-04-07T03:19:53.710Z,528.00
2023-04-07T03:20:53.741Z,520.00
2023-04-07T03:21:53.767Z,525.00
2023-04-07T03:22:53.778Z,526.00
2023-04-07T03:23:54.034Z,525.00
2023-04-07T03:24:53.831Z,527.00
2023-04-07T03:25:53.842Z,522.00
2023-04-07T03:26:53.877Z,527.00
2023-04-07T03:27:53.880Z,524.00
2023-04-07T03:28:53.904Z,526.00
2023-04-07T03:29:53.931Z,524.00
2023-04-07T03:30:53.998Z,523.00
2023-04-07T03:31:53.965Z,526.00
2023-04-07T03:32:54.007Z,526.00
2023-04-07T03:33:54.238Z,525.00
2023-04-07T03:34:54.041Z,522.00
2023-04-07T03:35:54.070Z,524.00
2023-04-07T03:36:54.062Z,526.00
2023-04-07T03:37:54.077Z,525.00
2023-04-07T03:38:54.110Z,521.00
2023-04-07T03:39:54.109Z,524.00
2023-04-07T03:40:54.145Z,529.00
2023-04-07T03:41:54.158Z,524.00
2023-04-07T03:42:54.183Z,519.00
2023-04-07T03:43:54.383Z,523.00
2023-04-07T03:44:54.224Z,522.00
2023-04-07T03:45:54.284Z,521.00
2023-04-07T03:46:54.275Z,520.00
2023-04-07T03:47:54.412Z,524.00
2023-04-07T03:48:54.331Z,528.00
2023-04-07T03:49:54.352Z,524.00
2023-04-07T03:50:54.645Z,527.00
2023-04-07T03:51:54.397Z,520.00
2023-04-07T03:52:54.422Z,524.00
2023-04-07T03:53:54.527Z,525.00
2023-04-07T03:54:54.467Z,528.00
2023-04-07T03:55:54.495Z,521.00
2023-04-07T03:56:55.141Z,522.00
2023-04-07T03:57:54.532Z,526.00
2023-04-07T03:58:54.566Z,520.00
2023-04-07T03:59:54.579Z,520.00
2023-04-07T04:00:54.612Z,521.00
2023-04-07T04:01:54.673Z,525.00
2023-04-07T04:02:55.678Z,528.00
2023-04-07T04:03:54.957Z,526.00
2023-04-07T04:04:54.761Z,530.00
2023-04-07T04:05:54.727Z,523.00
2023-04-07T04:06:54.755Z,528.00
2023-04-07T04:07:54.778Z,521.00
2023-04-07T04:08:54.798Z,524.00
2023-04-07T04:09:54.820Z,527.00
2023-04-07T04:10:54.919Z,522.00
2023-04-07T04:11:54.879Z,522.00
2023-04-07T04:12:54.896Z,524.00
2023-04-07T04:13:55.293Z,529.00
2023-04-07T04:14:54.928Z,524.00
2023-04-07T04:15:54.979Z,524.00
2023-04-07T04:16:54.973Z,522.00
2023-04-07T04:17:55.067Z,522.00
2023-04-07T04:18:55.016Z,519.00
2023-04-07T04:19:55.050Z,523.00
2023-04-07T04:20:55.056Z,524.00
2023-04-07T04:21:55.093Z,529.00
2023-04-07T04:22:55.093Z,526.00
2023-04-07T04:23:55.197Z,521.00
2023-04-07T04:24:55.148Z,526.00
2023-04-07T04:25:55.181Z,530.00
2023-04-07T04:26:55.217Z,521.00
2023-04-07T04:27:55.220Z,522.00
2023-04-07T04:28:55.251Z,523.00
2023-04-07T04:29:55.258Z,523.00
2023-04-07T04:30:55.296Z,524.00
2023-04-07T04:31:55.306Z,515.00
2023-04-07T04:32:55.362Z,521.00
2023-04-07T04:33:55.473Z,532.00
2023-04-07T04:34:55.369Z,522.00
2023-04-07T04:35:55.401Z,518.00
2023-04-07T04:36:55.486Z,527.00
2023-04-07T04:37:55.431Z,525.00
2023-04-07T04:38:55.515Z,530.00
2023-04-07T04:39:55.507Z,523.00
2023-04-07T04:40:55.500Z,518.00
2023-04-07T04:41:55.535Z,522.00
2023-04-07T04:42:55.552Z,526.00
2023-04-07T04:43:55.571Z,524.00
2023-04-07T04:44:55.599Z,525.00
2023-04-07T04:45:55.615Z,518.00
2023-04-07T04:46:55.667Z,520.00
2023-04-07T04:47:55.726Z,519.00
2023-04-07T04:48:55.694Z,524.00
2023-04-07T04:49:55.702Z,524.00
2023-04-07T04:50:56.666Z,522.00
2023-04-07T04:51:55.762Z,520.00
2023-04-07T04:52:55.786Z,522.00
2023-04-07T04:53:55.819Z,521.00
2023-04-07T04:54:55.819Z,522.00
2023-04-07T04:55:55.863Z,523.00
2023-04-07T04:56:55.868Z,521.00
2023-04-07T04:57:55.884Z,525.00
2023-04-07T04:58:55.907Z,521.00
2023-04-07T04:59:55.922Z,519.00
2023-04-07T05:00:55.968Z,516.00
2023-04-07T05:01:56.029Z,519.00
2023-04-07T05:02:56.131Z,524.00
2023-04-07T05:03:56.354Z,524.00
2023-04-07T05:04:56.752Z,520.00
2023-04-07T05:05:56.048Z,521.00
2023-04-07T05:06:56.067Z,520.00
2023-04-07T05:07:56.082Z,522.00
2023-04-07T05:08:56.103Z,517.00
2023-04-07T05:09:56.665Z,519.00
2023-04-07T05:10:56.155Z,521.00
2023-04-07T05:11:56.178Z,519.00
2023-04-07T05:12:56.198Z,525.00
2023-04-07T05:13:56.210Z,523.00
2023-04-07T05:14:56.250Z,520.00
2023-04-07T05:15:56.302Z,525.00
2023-04-07T05:16:56.284Z,519.00
2023-04-07T05:17:56.409Z,521.00
2023-04-07T05:18:56.313Z,527.00
2023-04-07T05:19:57.167Z,521.00
2023-04-07T05:20:56.350Z,522.00
2023-04-07T05:21:56.379Z,519.00
2023-04-07T05:22:56.405Z,520.00
2023-04-07T05:23:56.420Z,523.00
2023-04-07T05:24:56.445Z,530.00
2023-04-07T05:25:56.467Z,516.00
2023-04-07T05:26:56.550Z,518.00
2023-04-07T05:27:56.523Z,521.00
2023-04-07T05:28:56.556Z,519.00
2023-04-07T05:29:56.572Z,527.00
2023-04-07T05:30:56.601Z,519.00
2023-04-07T05:31:56.738Z,527.00
2023-04-07T05:32:56.698Z,523.00
2023-04-07T05:33:56.663Z,519.00
2023-04-07T05:34:56.746Z,523.00
2023-04-07T05:35:56.770Z,519.00
2023-04-07T05:36:56.740Z,517.00
2023-04-07T05:37:56.769Z,522.00
2023-04-07T05:38:56.793Z,518.00
2023-04-07T05:39:56.806Z,519.00
2023-04-07T05:40:56.833Z,525.00
2023-04-07T05:41:56.858Z,518.00
2023-04-07T05:42:56.893Z,516.00
2023-04-07T05:43:56.916Z,523.00
2023-04-07T05:44:57.678Z,522.00
2023-04-07T05:45:57.060Z,519.00
2023-04-07T05:46:56.972Z,515.00
2023-04-07T05:47:57.015Z,519.00
2023-04-07T05:48:58.000Z,521.00
2023-04-07T05:49:57.038Z,519.00
2023-04-07T05:50:57.110Z,524.00
2023-04-07T05:51:57.108Z,518.00
2023-04-07T05:52:57.118Z,521.00
2023-04-07T05:53:57.144Z,520.00
2023-04-07T05:54:57.197Z,522.00
2023-04-07T05:55:57.182Z,517.00
2023-04-07T05:56:57.261Z,518.00
2023-04-07T05:57:57.235Z,519.00
2023-04-07T05:58:57.263Z,519.00
2023-04-07T05:59:57.285Z,524.00
2023-04-07T06:00:57.325Z,521.00
2023-04-07T06:01:57.446Z,521.00
2023-04-07T06:02:57.464Z,522.00
2023-04-07T06:03:57.460Z,515.00
2023-04-07T06:04:57.435Z,526.00
2023-04-07T06:05:57.428Z,517.00
2023-04-07T06:06:57.470Z,515.00
2023-04-07T06:07:57.493Z,522.00
2023-04-07T06:08:57.512Z,516.00
2023-04-07T06:09:57.559Z,512.00
2023-04-07T06:10:57.575Z,520.00
2023-04-07T06:11:57.583Z,520.00
2023-04-07T06:12:57.605Z,527.00
2023-04-07T06:13:57.644Z,515.00
2023-04-07T06:14:57.666Z,517.00
2023-04-07T06:15:57.691Z,519.00
2023-04-07T06:16:57.802Z,518.00
2023-04-07T06:17:57.769Z,525.00
2023-04-07T06:18:57.765Z,517.00
2023-04-07T06:19:57.802Z,519.00
2023-04-07T06:20:57.820Z,517.00
2023-04-07T06:21:57.847Z,516.00
2023-04-07T06:22:57.889Z,518.00
2023-04-07T06:23:57.899Z,518.00
2023-04-07T06:24:57.924Z,515.00
2023-04-07T06:25:57.967Z,517.00
2023-04-07T06:26:57.986Z,517.00
2023-04-07T06:27:58.202Z,517.00
2023-04-07T06:28:58.029Z,516.00
2023-04-07T06:29:58.050Z,517.00
2023-04-07T06:30:58.402Z,514.00
2023-04-07T06:31:58.102Z,520.00
2023-04-07T06:32:58.163Z,515.00
2023-04-07T06:33:58.155Z,516.00
2023-04-07T06:34:58.176Z,522.00
2023-04-07T06:35:58.212Z,516.00
2023-04-07T06:36:59.476Z,520.00
2023-04-07T06:37:58.266Z,518.00
2023-04-07T06:38:58.285Z,519.00
2023-04-07T06:40:01.197Z,518.00
2023-04-07T06:40:58.302Z,524.00
2023-04-07T06:41:58.310Z,512.00
2023-04-07T06:42:58.390Z,520.00
2023-04-07T06:43:58.285Z,515.00
2023-04-07T06:44:58.283Z,517.00
2023-04-07T06:45:58.309Z,522.00
2023-04-07T06:46:58.266Z,522.00
2023-04-07T06:47:58.319Z,523.00
2023-04-07T06:48:58.260Z,517.00
2023-04-07T06:49:58.258Z,517.00
2023-04-07T06:50:58.261Z,522.00
2023-04-07T06:51:58.251Z,521.00
2023-04-07T06:52:58.248Z,517.00
2023-04-07T06:53:58.247Z,520.00
2023-04-07T06:54:58.237Z,515.00
2023-04-07T06:55:58.230Z,520.00
2023-04-07T06:56:58.277Z,521.00
2023-04-07T06:57:58.243Z,522.00
2023-04-07T06:58:58.226Z,522.00
2023-04-07T06:59:58.204Z,521.00
2023-04-07T07:00:58.236Z,520.00
2023-04-07T07:01:58.308Z,520.00
2023-04-07T07:02:58.307Z,522.00
2023-04-07T07:03:58.251Z,522.00
2023-04-07T07:04:58.175Z,519.00
2023-04-07T07:05:58.170Z,518.00
2023-04-07T07:06:58.710Z,520.00
2023-04-07T07:07:58.150Z,518.00
2023-04-07T07:08:58.137Z,519.00
2023-04-07T07:09:58.142Z,519.00
2023-04-07T07:10:58.134Z,520.00
2023-04-07T07:11:58.118Z,517.00
2023-04-07T07:12:58.119Z,520.00
2023-04-07T07:13:58.115Z,522.00
2023-04-07T07:14:58.094Z,521.00
2023-04-07T07:15:58.174Z,524.00
2023-04-07T07:16:58.070Z,516.00
2023-04-07T07:17:58.110Z,519.00
2023-04-07T07:18:58.040Z,518.00
2023-04-07T07:19:58.050Z,519.00
2023-04-07T07:20:58.043Z,520.00
2023-04-07T07:21:58.029Z,516.00
2023-04-07T07:22:58.032Z,512.00
2023-04-07T07:23:58.021Z,522.00
2023-04-07T07:24:58.000Z,522.00
2023-04-07T07:25:57.993Z,524.00
2023-04-07T07:26:57.978Z,524.00
2023-04-07T07:27:57.973Z,517.00
2023-04-07T07:28:58.033Z,523.00
2023-04-07T07:29:57.957Z,517.00
2023-04-07T07:30:57.980Z,515.00
2023-04-07T07:31:57.924Z,520.00
2023-04-07T07:32:57.938Z,521.00
2023-04-07T07:33:57.907Z,520.00
2023-04-07T07:34:57.898Z,522.00
2023-04-07T07:35:57.938Z,522.00
2023-04-07T07:36:57.880Z,518.00
2023-04-07T07:37:57.889Z,523.00
2023-04-07T07:38:57.858Z,523.00
2023-04-07T07:39:57.863Z,520.00
2023-04-07T07:40:57.853Z,523.00
2023-04-07T07:41:57.904Z,517.00
2023-04-07T07:42:57.843Z,518.00
2023-04-07T07:43:58.211Z,522.00
2023-04-07T07:44:57.831Z,523.00
2023-04-07T07:45:57.837Z,520.00
2023-04-07T07:46:57.820Z,523.00
2023-04-07T07:47:57.852Z,519.00
2023-04-07T07:48:57.827Z,524.00
2023-04-07T07:49:57.824Z,520.00
2023-04-07T07:50:57.825Z,522.00
2023-04-07T07:51:57.813Z,523.00
2023-04-07T07:52:57.801Z,523.00
2023-04-07T07:53:57.787Z,518.00
2023-04-07T07:54:58.225Z,522.00
2023-04-07T07:55:58.726Z,524.00
2023-04-07T07:56:57.795Z,524.00
2023-04-07T07:57:57.760Z,515.00
2023-04-07T07:58:58.386Z,523.00
2023-04-07T07:59:57.776Z,519.00
2023-04-07T08:00:57.735Z,522.00
2023-04-07T08:01:57.813Z,520.00
2023-04-07T08:02:58.309Z,522.00
2023-04-07T08:03:57.916Z,520.00
2023-04-07T08:04:57.846Z,519.00
2023-04-07T08:05:57.693Z,514.00
2023-04-07T08:06:57.684Z,521.00
2023-04-07T08:07:57.683Z,524.00
2023-04-07T08:08:57.671Z,527.00
2023-04-07T08:09:57.666Z,526.00
2023-04-07T08:10:57.645Z,525.00
2023-04-07T08:11:57.645Z,521.00
2023-04-07T08:12:57.661Z,525.00
2023-04-07T08:13:57.646Z,523.00
2023-04-07T08:14:57.630Z,522.00
2023-04-07T08:15:57.656Z,525.00
2023-04-07T08:16:57.616Z,524.00
2023-04-07T08:17:57.633Z,526.00
2023-04-07T08:18:57.595Z,525.00
2023-04-07T08:19:57.586Z,520.00
2023-04-07T08:20:57.638Z,527.00
2023-04-07T08:21:57.589Z,524.00
2023-04-07T08:22:57.564Z,517.00
2023-04-07T08:23:57.583Z,523.00
2023-04-07T08:24:57.580Z,522.00
2023-04-07T08:25:57.589Z,523.00
2023-04-07T08:26:57.589Z,522.00
2023-04-07T08:27:57.578Z,521.00
2023-04-07T08:28:57.496Z,526.00
2023-04-07T08:29:57.487Z,525.00
2023-04-07T08:30:57.469Z,515.00
2023-04-07T08:31:57.509Z,518.00
2023-04-07T08:32:57.466Z,519.00
2023-04-07T08:33:57.435Z,528.00
2023-04-07T08:34:57.422Z,520.00
2023-04-07T08:35:57.422Z,522.00
2023-04-07T08:36:57.397Z,522.00
2023-04-07T08:37:57.381Z,522.00
2023-04-07T08:38:57.377Z,530.00
2023-04-07T08:39:57.352Z,526.00
2023-04-07T08:40:57.353Z,525.00
2023-04-07T08:41:57.349Z,529.00
2023-04-07T08:42:57.332Z,527.00
2023-04-07T08:43:57.353Z,524.00
2023-04-07T08:44:57.324Z,524.00
2023-04-07T08:45:57.320Z,529.00
2023-04-07T08:46:57.428Z,526.00
2023-04-07T08:47:57.325Z,521.00
2023-04-07T08:48:57.279Z,530.00
2023-04-07T08:49:57.277Z,519.00
2023-04-07T08:50:57.266Z,518.00
2023-04-07T08:51:57.258Z,530.00
2023-04-07T08:52:57.246Z,529.00
2023-04-07T08:53:57.330Z,527.00
2023-04-07T08:54:57.246Z,520.00
2023-04-07T08:55:57.217Z,525.00
2023-04-07T08:56:57.199Z,524.00
2023-04-07T08:57:57.250Z,523.00
2023-04-07T08:58:57.190Z,528.00
2023-04-07T08:59:57.169Z,525.00
2023-04-07T09:00:57.184Z,532.00
2023-04-07T09:01:57.185Z,531.00
2023-04-07T09:02:57.211Z,534.00
2023-04-07T09:03:57.129Z,529.00
2023-04-07T09:04:57.107Z,525.00
2023-04-07T09:05:57.097Z,529.00
2023-04-07T09:06:57.094Z,526.00
2023-04-07T09:07:57.090Z,526.00
2023-04-07T09:08:57.101Z,526.00
2023-04-07T09:09:57.173Z,531.00
2023-04-07T09:10:57.125Z,525.00
2023-04-07T09:11:57.131Z,528.00
2023-04-07T09:12:57.114Z,530.00
2023-04-07T09:13:57.135Z,523.00
2023-04-07T09:14:57.114Z,528.00
2023-04-07T09:15:57.135Z,529.00
2023-04-07T09:16:57.185Z,530.00
2023-04-07T09:17:57.170Z,531.00
2023-04-07T09:18:57.147Z,529.00
2023-04-07T09:19:57.184Z,527.00
2023-04-07T09:20:57.198Z,528.00
2023-04-07T09:21:57.228Z,526.00
2023-04-07T09:22:57.221Z,524.00
2023-04-07T09:23:57.753Z,530.00
2023-04-07T09:24:57.258Z,534.00
2023-04-07T09:25:57.286Z,533.00
2023-04-07T09:26:57.287Z,532.00
2023-04-07T09:27:57.325Z,526.00
2023-04-07T09:28:57.367Z,532.00
2023-04-07T09:29:57.299Z,528.00
2023-04-07T09:30:57.760Z,525.00
2023-04-07T09:31:57.399Z,527.00
2023-04-07T09:32:57.365Z,531.00
2023-04-07T09:33:57.356Z,532.00
2023-04-07T09:34:57.361Z,528.00
2023-04-07T09:35:57.450Z,527.00
2023-04-07T09:36:57.395Z,529.00
2023-04-07T09:37:57.388Z,531.00
2023-04-07T09:38:57.408Z,531.00
2023-04-07T09:39:57.424Z,537.00
2023-04-07T09:40:57.517Z,530.00
2023-04-07T09:41:57.473Z,531.00
2023-04-07T09:42:57.532Z,535.00
2023-04-07T09:43:57.578Z,535.00
2023-04-07T09:44:57.588Z,532.00
2023-04-07T09:45:57.691Z,532.00
2023-04-07T09:46:57.680Z,533.00
2023-04-07T09:47:57.756Z,530.00
2023-04-07T09:48:57.786Z,532.00
2023-04-07T09:49:57.820Z,533.00
2023-04-07T09:50:58.297Z,527.00
2023-04-07T09:51:58.254Z,533.00
2023-04-07T09:52:57.968Z,534.00
2023-04-07T09:53:57.992Z,535.00
2023-04-07T09:54:58.046Z,531.00
2023-04-07T09:55:58.109Z,529.00
2023-04-07T09:56:58.134Z,536.00
2023-04-07T09:57:58.179Z,534.00
2023-04-07T09:58:58.235Z,539.00
2023-04-07T09:59:58.269Z,533.00
2023-04-07T10:00:58.333Z,539.00
2023-04-07T10:01:58.463Z,540.00
2023-04-07T10:02:58.742Z,533.00
2023-04-07T10:03:58.540Z,534.00
2023-04-07T10:04:58.547Z,536.00
2023-04-07T10:05:58.626Z,540.00
2023-04-07T10:06:58.646Z,535.00
2023-04-07T10:07:58.717Z,533.00
2023-04-07T10:08:58.774Z,536.00
2023-04-07T10:09:58.825Z,529.00
2023-04-07T10:10:58.888Z,535.00
2023-04-07T10:11:58.924Z,533.00
2023-04-07T10:12:58.986Z,537.00
2023-04-07T10:13:59.026Z,537.00
2023-04-07T10:14:59.075Z,536.00
2023-04-07T10:15:59.187Z,533.00
2023-04-07T10:16:59.277Z,532.00
2023-04-07T10:17:59.255Z,536.00
2023-04-07T10:18:59.277Z,538.00
2023-04-07T10:19:59.325Z,534.00
2023-04-07T10:20:59.370Z,536.00
2023-04-07T10:21:59.435Z,539.00
2023-04-07T10:22:59.462Z,534.00
2023-04-07T10:23:59.501Z,532.00
2023-04-07T10:24:59.587Z,535.00
2023-04-07T10:25:59.608Z,539.00
2023-04-07T10:26:59.646Z,536.00
2023-04-07T10:27:59.697Z,534.00
2023-04-07T10:28:59.779Z,531.00
2023-04-07T10:29:59.867Z,536.00
2023-04-07T10:30:59.872Z,537.00
2023-04-07T10:31:59.865Z,535.00
2023-04-07T10:32:59.996Z,539.00
2023-04-07T10:33:59.948Z,534.00
2023-04-07T10:35:00.928Z,535.00
2023-04-07T10:35:59.960Z,535.00
2023-04-07T10:36:59.891Z,536.00
2023-04-07T10:37:59.888Z,536.00
2023-04-07T10:38:59.867Z,540.00
2023-04-07T10:39:59.845Z,537.00
2023-04-07T10:40:59.835Z,538.00
2023-04-07T10:41:59.815Z,536.00
2023-04-07T10:42:59.805Z,536.00
2023-04-07T10:43:59.805Z,531.00
2023-04-07T10:45:00.279Z,530.00
2023-04-07T10:46:00.123Z,536.00
2023-04-07T10:46:59.849Z,542.00
2023-04-07T10:47:59.896Z,537.00
2023-04-07T10:48:59.892Z,535.00
2023-04-07T10:49:59.922Z,539.00
2023-04-07T10:50:59.980Z,538.00
2023-04-07T10:51:59.984Z,533.00
2023-04-07T10:53:00.005Z,544.00
2023-04-07T10:54:00.052Z,537.00
2023-04-07T10:55:00.055Z,539.00
2023-04-07T10:56:00.083Z,540.00
2023-04-07T10:57:00.107Z,542.00
2023-04-07T10:58:00.142Z,535.00
2023-04-07T10:59:00.156Z,539.00
2023-04-07T11:00:00.191Z,538.00
2023-04-07T11:01:00.250Z,527.00
2023-04-07T11:02:00.350Z,542.00
2023-04-07T11:03:00.458Z,538.00
2023-04-07T11:04:00.322Z,542.00
2023-04-07T11:05:00.295Z,544.00
2023-04-07T11:06:00.329Z,538.00
2023-04-07T11:07:00.346Z,537.00
2023-04-07T11:08:00.378Z,541.00
2023-04-07T11:09:00.400Z,541.00
2023-04-07T11:10:00.425Z,541.00
2023-04-07T11:11:00.459Z,536.00
2023-04-07T11:12:00.476Z,536.00
2023-04-07T11:13:00.494Z,537.00
2023-04-07T11:14:00.540Z,537.00
2023-04-07T11:15:00.557Z,544.00
2023-04-07T11:16:00.601Z,541.00
2023-04-07T11:17:00.623Z,547.00
2023-04-07T11:18:00.695Z,550.00
2023-04-07T11:19:00.664Z,547.00
2023-04-07T11:20:00.690Z,546.00
2023-04-07T11:21:00.731Z,549.00
2023-04-07T11:22:00.749Z,543.00
2023-04-07T11:23:00.812Z,548.00
2023-04-07T11:24:00.831Z,546.00
2023-04-07T11:25:00.865Z,548.00
2023-04-07T11:26:00.893Z,549.00
2023-04-07T11:27:00.931Z,546.00
2023-04-07T11:28:00.960Z,548.00
2023-04-07T11:29:00.992Z,548.00
2023-04-07T11:30:01.085Z,544.00
2023-04-07T11:31:01.133Z,544.00
2023-04-07T11:32:01.099Z,551.00
2023-04-07T11:33:01.206Z,547.00
2023-04-07T11:34:01.181Z,544.00
2023-04-07T11:35:01.216Z,545.00
2023-04-07T11:36:01.428Z,546.00
2023-04-07T11:37:01.294Z,545.00
2023-04-07T11:38:01.342Z,541.00
2023-04-07T11:39:01.394Z,544.00
2023-04-07T11:40:01.429Z,547.00
2023-04-07T11:41:01.476Z,545.00
2023-04-07T11:42:02.310Z,546.00
2023-04-07T11:43:01.651Z,550.00
2023-04-07T11:44:01.599Z,544.00
2023-04-07T11:45:01.683Z,539.00
2023-04-07T11:46:01.693Z,548.00
2023-04-07T11:47:01.745Z,543.00
2023-04-07T11:48:01.803Z,545.00
2023-04-07T11:49:01.801Z,543.00
2023-04-07T11:50:01.845Z,541.00
2023-04-07T11:51:01.897Z,545.00
2023-04-07T11:52:01.951Z,542.00
2023-04-07T11:53:01.973Z,549.00
2023-04-07T11:54:02.014Z,543.00
2023-04-07T11:55:02.056Z,549.00
2023-04-07T11:56:02.104Z,548.00
2023-04-07T11:57:02.138Z,546.00
2023-04-07T11:58:02.183Z,545.00
2023-04-07T11:59:02.224Z,546.00
2023-04-07T12:00:02.264Z,539.00
2023-04-07T12:01:02.330Z,548.00
2023-04-07T12:02:02.446Z,539.00
2023-04-07T12:03:02.486Z,547.00
2023-04-07T12:04:02.881Z,547.00
2023-04-07T12:05:02.505Z,546.00
2023-04-07T12:06:02.531Z,549.00
2023-04-07T12:07:02.543Z,544.00
2023-04-07T12:08:02.582Z,546.00
2023-04-07T12:09:02.678Z,552.00
2023-04-07T12:10:02.640Z,547.00
2023-04-07T12:11:02.664Z,549.00
2023-04-07T12:12:02.680Z,552.00
2023-04-07T12:13:02.697Z,548.00
2023-04-07T12:14:02.808Z,548.00
2023-04-07T12:15:02.761Z,548.00
2023-04-07T12:16:02.791Z,547.00
2023-04-07T12:17:02.797Z,549.00
2023-04-07T12:18:02.919Z,550.00
2023-04-07T12:19:02.824Z,547.00
2023-04-07T12:20:02.851Z,548.00
2023-04-07T12:21:02.890Z,551.00
2023-04-07T12:22:02.981Z,552.00
2023-04-07T12:23:02.914Z,553.00
2023-04-07T12:24:02.935Z,552.00
2023-04-07T12:25:02.960Z,552.00
2023-04-07T12:26:02.988Z,556.00
2023-04-07T12:27:03.031Z,552.00
2023-04-07T12:28:03.050Z,548.00
2023-04-07T12:29:03.152Z,555.00